Weather at Airport Bamberg-Breitenau

Public forecast

Using degrees Celsius for public forecast. Weather courtesy of forecast.io.

Closest aviation weather report (METAR) to Airport Bamberg-Breitenau

Closest report is Nuremberg Airport, 26.1 nm (48.3 km) SSE.

2022/12/04 04:20 (retrieved 16 minutes ago)

EDDN 040420Z AUTO 07004KT 030V100 9999 OVC008 02/01 Q1013

Closest aviation forecast (TAF) to Airport Bamberg-Breitenau

Forecast is more than 12 hours old.

Closest forecast is Illesheim Air Base, 33.7 nm (62.4 km) SW.

2022/12/02 22:21 (retrieved 1 day ago)

TAF ETIK 022200Z 0222/0404 06006KT 3000 BR OVC008 650106 QNH3006INS BECMG 0300/0301 06006KT 9999 NSW OVC008 QNH3006INS BECMG 0310/0311 09006KT 9999 OVC030 QNH3002INS BECMG 0319/0320 09006KT 9999 OVC015 QNH2998INS TX02/0314Z TN00/0304Z LAST NO AMDS AFT 0222 NEXT 0506